Station info - map view · info · telemetry · weather · raw · status · beacons · messages · bulletins · browse · moving · my account
Callsign, ship name or locator: Clear       
It is possible to search using wildcards (*?) after a prefix. Example: OH*
APRS station KG7KHC-1 - show graphs
Map loading...
Mic-E message: In service
Location: 38°38.62' N 109°49.17' W - locator DM58CP14PL - show map - static map
15.3 miles West bearing 289° from Moab, Grand County, Utah, United States [?]
59.3 miles Northwest bearing 334° from Monticello, San Juan County, Utah, United States
74.1 miles Southwest bearing 247° from Grand Junction, Mesa County, Colorado, United States
79.9 miles West bearing 248° from Clifton, Mesa County, Colorado, United States
Last position: 2017-05-24 17:22:57 EDT (14m10s ago)
2017-05-24 15:22:57 MDT local time at Moab, United States [?]
Altitude: 5266 ft
Course: 269°
Speed: 8 MPH
Device: Kenwood: TM-D710 (rig)
Last path: KG7KHC-1>S8SXVR via WIDE1-1,WIDE2-1,qAR,K7YI-4 (good)
Positions stored: 7290
Packet rate: 185 seconds between packets on average during 9262 seconds.
Stations near current position of KG7KHC-1 - show more
callsign distance last heard - EDT      callsign distance last heard - EDT
W7DHH-616.1 yards 90°2017-05-21 21:31:31 WB7REL-616.1 yards 90°2017-05-24 17:22:38
WB7REL-526.2 yards 142°2017-05-20 19:53:21 WB7REL-926.2 yards 142°2017-05-17 16:08:52
K7OLC-441.3 yards 180°2017-05-20 19:44:57 KG7GMP-95.2 miles 96°2017-05-24 17:36:17
KCNY9.3 miles 24°2017-05-05 12:28:32 DWCW454111.6 miles 233°2017-05-03 23:30:00
W7DHH-513.0 miles 179°2017-05-19 12:54:57 KG7GIG-714.0 miles 104°2017-05-07 15:13:56
KG7CES14.8 miles 107°2017-05-24 17:21:25 146.900-u15.3 miles 108°2017-05-24 13:43:25
K7QEQ-315.6 miles 111°2017-05-24 17:36:26 K7QEQ15.6 miles 111°2017-05-24 17:35:36
K7QEQ-215.6 miles 111°2017-05-19 23:43:11 SANDFL16.5 miles 108°2017-05-24 17:24:19
N6OL-816.5 miles 110°2017-05-06 15:21:58 KF5OAB-916.7 miles 112°2017-05-05 18:10:51
EW769517.3 miles 111°2017-05-24 17:22:24 K0VXP-317.7 miles 190°2017-05-21 15:07:02
Stations which heard KG7KHC-1 directly on radio –
callsign pkts first heard - EDT last heard longest (tx => rx) longest at - EDT
KA7EZO 3 2017-05-17 09:49:07 2017-05-17 10:12:55 DM49EI > DM49GL 10.5 miles 29° 2017-05-17 10:12:55
RCHFLD 2 2017-05-17 12:17:49 2017-05-18 12:18:01 DM58BN > DM38XM 116.5 miles 269° 2017-05-18 12:18:01
BAXTER 13 2017-05-17 15:27:27 2017-05-24 17:04:24 DM58DL > DM59MO 85.1 miles 27° 2017-05-19 19:23:22
HOLDEN 8 2017-05-17 12:19:28 2017-05-17 12:52:24 DM48HS > DM39WA 45.6 miles 295° 2017-05-17 12:52:24
SUNLGT 3 2017-05-17 15:32:10 2017-05-20 18:35:25 DM58CP > DM69HK 140.5 miles 67° 2017-05-19 20:34:13
BALD 131 2017-05-17 14:46:37 2017-05-24 17:18:32 DM48WX > DM58IM 52.8 miles 126° 2017-05-17 14:46:37
ABAJO 168 2017-05-17 13:05:53 2017-05-24 15:54:49 DM48KT > DM57GU 113.8 miles 126° 2017-05-17 13:05:53
K7YI-4 221 2017-05-17 12:54:45 2017-05-24 17:22:57 DM58IF > DM49JF 121.5 miles 305° 2017-05-20 12:49:19
ELLEN 1 2017-05-22 18:05:27 2017-05-22 18:05:27 DM58AP > DM48OB 60.1 miles 231° 2017-05-22 18:05:27
RBERRY 6 2017-05-18 12:23:52 2017-05-24 13:15:20 DM58BN > DM58VH 93.4 miles 101° 2017-05-18 12:23:52
STRLNG 16 2017-05-17 10:36:20 2017-05-17 12:14:18 DM48BW > DM49DE 19.6 miles 22° 2017-05-17 12:14:18
DOLLAR 1 2017-05-19 19:18:42 2017-05-19 19:18:42 DM58DL > DM67AX 99.2 miles 110° 2017-05-19 19:18:42
SHEEP 6 2017-05-19 12:10:11 2017-05-19 18:04:57 DM58CK > DM68FL 120.9 miles 89° 2017-05-19 12:43:43
KE7DCJ-3 20 2017-05-17 09:48:23 2017-05-17 10:37:29 DM49FL > DM49EG 14.9 miles 195° 2017-05-17 09:53:33
WB7REL-9 3 2017-05-17 12:30:17 2017-05-17 13:00:00 DM48DV > DM49CD 18.2 miles 335° 2017-05-17 12:30:17
SANDFL 22 2017-05-17 15:23:24 2017-05-24 17:03:06 DM58CP > DM58FN 16.5 miles 108° 2017-05-24 12:14:11
CANYLD 57 2017-05-17 15:08:52 2017-05-24 17:09:21 DM58CV > DM58DG 43.2 miles 172° 2017-05-17 15:08:52
CEDRMT 8 2017-05-17 13:49:34 2017-05-23 14:36:18 DM58CN > DM49QE 60.3 miles 313° 2017-05-18 12:39:39
KF7TBD-10 11 2017-05-17 13:13:35 2017-05-17 13:43:27 DM48QV > DM49MH 34.6 miles 332° 2017-05-17 13:43:27
N7YFZ 2 2017-05-17 10:39:58 2017-05-17 10:42:16 DM49CD > DM49DC 5.8 miles 124° 2017-05-17 10:42:16

Only position packets which were originated by the station are shown here. The range statistics show some extra long hops, because some digipeaters do not correctly add themselves to the digipeater path. Please check the raw packets.
About this site
This page shows real-time information collected from the Automatic Position Reporting System Internet network (APRS-IS). APRS is used by amateur (ham) radio operators to transmit real-time position information, weather data, telemetry and messages over the radio. A vehicle equipped with a GPS receiver, a VHF transmitter or HF transceiver and a small computer device called a tracker transmits it's location, speed and course in a small data packet, which is then received by a nearby iGate receiving site which forwards the packet on the Internet. Systems connected to the Internet can send information on the APRS-IS without a radio transmitter, or collect and display information transmitted anywhere in the world.
FAQ · Blog · Discussion group · Linking to aprs.fi · AIS sites · Service status · Database statistics · Advertising on aprs.fi · Technical details · API · Change log · Planned changes · Credits and thanks · Terms Of Service · iPhone/iPad APRS